sensor_id;sensor_type;location;lat;lon;timestamp;temperature;humidity
71155;DHT22;59375;53.216;5.728;2022-10-16T00:00:43;12.80;99.90
71155;DHT22;59375;53.216;5.728;2022-10-16T00:03:09;12.80;99.90
71155;DHT22;59375;53.216;5.728;2022-10-16T00:05:42;12.80;99.90
71155;DHT22;59375;53.216;5.728;2022-10-16T00:08:10;12.80;99.90
71155;DHT22;59375;53.216;5.728;2022-10-16T00:10:35;12.80;99.90
71155;DHT22;59375;53.216;5.728;2022-10-16T00:13:01;12.80;99.90
71155;DHT22;59375;53.216;5.728;2022-10-16T00:15:27;12.70;99.90
71155;DHT22;59375;53.216;5.728;2022-10-16T00:17:52;12.70;99.90
71155;DHT22;59375;53.216;5.728;2022-10-16T00:20:18;12.80;99.90
71155;DHT22;59375;53.216;5.728;2022-10-16T00:22:43;12.70;99.90
71155;DHT22;59375;53.216;5.728;2022-10-16T00:25:09;12.70;99.90
71155;DHT22;59375;53.216;5.728;2022-10-16T00:27:34;12.70;99.90
71155;DHT22;59375;53.216;5.728;2022-10-16T00:30:00;12.70;99.90
71155;DHT22;59375;53.216;5.728;2022-10-16T00:32:26;12.70;99.90
71155;DHT22;59375;53.216;5.728;2022-10-16T00:34:51;12.70;99.90
71155;DHT22;59375;53.216;5.728;2022-10-16T00:37:19;12.70;99.90
71155;DHT22;59375;53.216;5.728;2022-10-16T00:39:45;12.70;99.90
71155;DHT22;59375;53.216;5.728;2022-10-16T00:42:16;12.70;99.90
71155;DHT22;59375;53.216;5.728;2022-10-16T00:44:54;12.70;99.90
71155;DHT22;59375;53.216;5.728;2022-10-16T00:47:32;12.70;99.90
71155;DHT22;59375;53.216;5.728;2022-10-16T00:50:08;12.70;99.90
71155;DHT22;59375;53.216;5.728;2022-10-16T00:52:34;12.70;99.90
71155;DHT22;59375;53.216;5.728;2022-10-16T00:55:02;12.70;99.90
71155;DHT22;59375;53.216;5.728;2022-10-16T00:57:28;12.70;99.90
71155;DHT22;59375;53.216;5.728;2022-10-16T00:59:53;12.70;99.90
71155;DHT22;59375;53.216;5.728;2022-10-16T01:02:20;12.80;99.90
71155;DHT22;59375;53.216;5.728;2022-10-16T01:04:48;12.80;99.90
71155;DHT22;59375;53.216;5.728;2022-10-16T01:07:35;12.80;99.90
71155;DHT22;59375;53.216;5.728;2022-10-16T01:10:30;12.80;99.90
71155;DHT22;59375;53.216;5.728;2022-10-16T01:13:21;12.90;99.90
71155;DHT22;59375;53.216;5.728;2022-10-16T01:18:54;13.00;99.90
71155;DHT22;59375;53.216;5.728;2022-10-16T01:21:26;13.00;99.90
71155;DHT22;59375;53.216;5.728;2022-10-16T01:32:00;13.10;99.90
71155;DHT22;59375;53.216;5.728;2022-10-16T01:34:37;13.10;99.90
71155;DHT22;59375;53.216;5.728;2022-10-16T01:37:09;13.10;99.90
71155;DHT22;59375;53.216;5.728;2022-10-16T01:39:38;13.10;99.90
71155;DHT22;59375;53.216;5.728;2022-10-16T01:42:09;13.10;99.90
71155;DHT22;59375;53.216;5.728;2022-10-16T01:44:37;13.10;99.90
71155;DHT22;59375;53.216;5.728;2022-10-16T01:47:04;13.10;99.90
71155;DHT22;59375;53.216;5.728;2022-10-16T01:49:34;13.20;99.90
71155;DHT22;59375;53.216;5.728;2022-10-16T01:52:02;13.20;99.90
71155;DHT22;59375;53.216;5.728;2022-10-16T01:54:32;13.20;99.90
71155;DHT22;59375;53.216;5.728;2022-10-16T01:56:59;13.10;99.90
71155;DHT22;59375;53.216;5.728;2022-10-16T01:59:30;13.20;99.90
71155;DHT22;59375;53.216;5.728;2022-10-16T02:01:59;13.20;99.90
71155;DHT22;59375;53.216;5.728;2022-10-16T02:04:36;13.10;99.90
71155;DHT22;59375;53.216;5.728;2022-10-16T02:07:02;13.10;99.90
71155;DHT22;59375;53.216;5.728;2022-10-16T02:09:30;13.00;99.90
71155;DHT22;59375;53.216;5.728;2022-10-16T02:11:58;13.00;99.90
71155;DHT22;59375;53.216;5.728;2022-10-16T02:14:25;13.00;99.90
71155;DHT22;59375;53.216;5.728;2022-10-16T02:16:51;13.00;99.90
71155;DHT22;59375;53.216;5.728;2022-10-16T02:19:18;12.90;99.90
71155;DHT22;59375;53.216;5.728;2022-10-16T02:21:49;12.90;99.90
71155;DHT22;59375;53.216;5.728;2022-10-16T02:24:30;12.80;99.90
71155;DHT22;59375;53.216;5.728;2022-10-16T02:27:05;12.70;99.90
71155;DHT22;59375;53.216;5.728;2022-10-16T02:29:38;12.70;99.90
71155;DHT22;59375;53.216;5.728;2022-10-16T02:32:06;12.60;99.90
71155;DHT22;59375;53.216;5.728;2022-10-16T02:34:33;12.60;99.90
71155;DHT22;59375;53.216;5.728;2022-10-16T02:37:01;12.60;99.90
71155;DHT22;59375;53.216;5.728;2022-10-16T02:39:28;12.60;99.90
71155;DHT22;59375;53.216;5.728;2022-10-16T02:41:54;12.60;99.90
71155;DHT22;59375;53.216;5.728;2022-10-16T02:44:20;12.60;99.90
71155;DHT22;59375;53.216;5.728;2022-10-16T02:46:45;12.60;99.90
71155;DHT22;59375;53.216;5.728;2022-10-16T02:49:11;12.60;99.90
71155;DHT22;59375;53.216;5.728;2022-10-16T02:51:36;12.50;99.90
71155;DHT22;59375;53.216;5.728;2022-10-16T02:54:03;12.50;99.90
71155;DHT22;59375;53.216;5.728;2022-10-16T02:56:29;12.50;99.90
71155;DHT22;59375;53.216;5.728;2022-10-16T02:58:55;12.50;99.90
71155;DHT22;59375;53.216;5.728;2022-10-16T03:01:21;12.50;99.90
71155;DHT22;59375;53.216;5.728;2022-10-16T03:03:46;12.40;99.90
71155;DHT22;59375;53.216;5.728;2022-10-16T03:06:12;12.50;99.90
71155;DHT22;59375;53.216;5.728;2022-10-16T03:08:37;12.40;99.90
71155;DHT22;59375;53.216;5.728;2022-10-16T03:11:03;12.40;99.90
71155;DHT22;59375;53.216;5.728;2022-10-16T03:13:29;12.40;99.90
71155;DHT22;59375;53.216;5.728;2022-10-16T03:15:55;12.40;99.90
71155;DHT22;59375;53.216;5.728;2022-10-16T03:18:20;12.40;99.90
71155;DHT22;59375;53.216;5.728;2022-10-16T03:20:46;12.30;99.90
71155;DHT22;59375;53.216;5.728;2022-10-16T03:23:11;12.40;99.90
71155;DHT22;59375;53.216;5.728;2022-10-16T03:25:37;12.30;99.90
71155;DHT22;59375;53.216;5.728;2022-10-16T03:28:03;12.30;99.90
71155;DHT22;59375;53.216;5.728;2022-10-16T03:30:29;12.30;99.90
71155;DHT22;59375;53.216;5.728;2022-10-16T03:32:54;12.30;99.90
71155;DHT22;59375;53.216;5.728;2022-10-16T03:35:21;12.40;99.90
71155;DHT22;59375;53.216;5.728;2022-10-16T03:37:46;12.40;99.90
71155;DHT22;59375;53.216;5.728;2022-10-16T03:40:13;12.40;99.90
71155;DHT22;59375;53.216;5.728;2022-10-16T03:42:38;12.40;99.90
71155;DHT22;59375;53.216;5.728;2022-10-16T03:45:04;12.40;99.90
71155;DHT22;59375;53.216;5.728;2022-10-16T03:47:30;12.40;99.90
71155;DHT22;59375;53.216;5.728;2022-10-16T03:49:58;12.30;99.90
71155;DHT22;59375;53.216;5.728;2022-10-16T03:52:23;12.40;99.90
71155;DHT22;59375;53.216;5.728;2022-10-16T03:54:49;12.40;99.90
71155;DHT22;59375;53.216;5.728;2022-10-16T03:57:15;12.40;99.90
71155;DHT22;59375;53.216;5.728;2022-10-16T03:59:40;12.40;99.90
71155;DHT22;59375;53.216;5.728;2022-10-16T04:02:06;12.50;99.90
71155;DHT22;59375;53.216;5.728;2022-10-16T04:04:31;12.50;99.90
71155;DHT22;59375;53.216;5.728;2022-10-16T04:06:57;12.50;99.90
71155;DHT22;59375;53.216;5.728;2022-10-16T04:09:22;12.60;99.90
71155;DHT22;59375;53.216;5.728;2022-10-16T04:11:48;12.60;99.90
71155;DHT22;59375;53.216;5.728;2022-10-16T04:14:14;12.60;99.90
71155;DHT22;59375;53.216;5.728;2022-10-16T04:16:39;12.70;99.90
71155;DHT22;59375;53.216;5.728;2022-10-16T04:19:05;12.70;99.90
71155;DHT22;59375;53.216;5.728;2022-10-16T04:21:30;12.60;99.90
71155;DHT22;59375;53.216;5.728;2022-10-16T04:23:56;12.60;99.90
71155;DHT22;59375;53.216;5.728;2022-10-16T04:26:21;12.70;99.90
71155;DHT22;59375;53.216;5.728;2022-10-16T04:28:47;12.70;99.90
71155;DHT22;59375;53.216;5.728;2022-10-16T04:31:12;12.70;99.90
71155;DHT22;59375;53.216;5.728;2022-10-16T04:33:38;12.70;99.90
71155;DHT22;59375;53.216;5.728;2022-10-16T04:36:04;12.70;99.90
71155;DHT22;59375;53.216;5.728;2022-10-16T04:38:30;12.70;99.90
71155;DHT22;59375;53.216;5.728;2022-10-16T04:40:56;12.70;99.90
71155;DHT22;59375;53.216;5.728;2022-10-16T04:43:21;12.70;99.90
71155;DHT22;59375;53.216;5.728;2022-10-16T04:45:47;12.60;99.90
71155;DHT22;59375;53.216;5.728;2022-10-16T04:48:13;12.60;99.90
71155;DHT22;59375;53.216;5.728;2022-10-16T04:50:39;12.60;99.90
71155;DHT22;59375;53.216;5.728;2022-10-16T04:53:05;12.60;99.90
71155;DHT22;59375;53.216;5.728;2022-10-16T04:55:31;12.60;99.90
71155;DHT22;59375;53.216;5.728;2022-10-16T04:57:57;12.60;99.90
71155;DHT22;59375;53.216;5.728;2022-10-16T05:00:22;12.60;99.90
71155;DHT22;59375;53.216;5.728;2022-10-16T05:02:50;12.60;99.90
71155;DHT22;59375;53.216;5.728;2022-10-16T05:05:15;12.60;99.90
71155;DHT22;59375;53.216;5.728;2022-10-16T05:07:41;12.60;99.90
71155;DHT22;59375;53.216;5.728;2022-10-16T05:10:07;12.70;99.90
71155;DHT22;59375;53.216;5.728;2022-10-16T05:12:32;12.60;99.90
71155;DHT22;59375;53.216;5.728;2022-10-16T05:14:58;12.60;99.90
71155;DHT22;59375;53.216;5.728;2022-10-16T05:17:27;12.60;99.90
71155;DHT22;59375;53.216;5.728;2022-10-16T05:19:52;12.60;99.90
71155;DHT22;59375;53.216;5.728;2022-10-16T05:22:18;12.60;99.90
71155;DHT22;59375;53.216;5.728;2022-10-16T05:24:44;12.60;99.90
71155;DHT22;59375;53.216;5.728;2022-10-16T05:27:10;12.60;99.90
71155;DHT22;59375;53.216;5.728;2022-10-16T05:29:36;12.60;99.90
71155;DHT22;59375;53.216;5.728;2022-10-16T05:32:02;12.70;99.90
71155;DHT22;59375;53.216;5.728;2022-10-16T05:34:28;12.60;99.90
71155;DHT22;59375;53.216;5.728;2022-10-16T05:36:53;12.60;99.90
71155;DHT22;59375;53.216;5.728;2022-10-16T05:39:19;12.50;99.90
71155;DHT22;59375;53.216;5.728;2022-10-16T05:41:44;12.50;99.90
71155;DHT22;59375;53.216;5.728;2022-10-16T05:44:10;12.50;99.90
71155;DHT22;59375;53.216;5.728;2022-10-16T05:46:36;12.40;99.90
71155;DHT22;59375;53.216;5.728;2022-10-16T05:49:02;12.40;99.90
71155;DHT22;59375;53.216;5.728;2022-10-16T05:51:27;12.40;99.90
71155;DHT22;59375;53.216;5.728;2022-10-16T05:53:53;12.40;99.90
71155;DHT22;59375;53.216;5.728;2022-10-16T05:56:18;12.30;99.90
71155;DHT22;59375;53.216;5.728;2022-10-16T05:58:44;12.30;99.90
71155;DHT22;59375;53.216;5.728;2022-10-16T06:01:15;12.40;99.90
71155;DHT22;59375;53.216;5.728;2022-10-16T06:03:41;12.40;99.90
71155;DHT22;59375;53.216;5.728;2022-10-16T06:06:11;12.40;99.90
71155;DHT22;59375;53.216;5.728;2022-10-16T06:08:37;12.40;99.90
71155;DHT22;59375;53.216;5.728;2022-10-16T06:11:05;12.40;99.90
71155;DHT22;59375;53.216;5.728;2022-10-16T06:13:31;12.40;99.90
71155;DHT22;59375;53.216;5.728;2022-10-16T06:15:58;12.40;99.90
71155;DHT22;59375;53.216;5.728;2022-10-16T06:18:25;12.40;99.90
71155;DHT22;59375;53.216;5.728;2022-10-16T06:20:50;12.40;99.90
71155;DHT22;59375;53.216;5.728;2022-10-16T06:23:16;12.40;99.90
71155;DHT22;59375;53.216;5.728;2022-10-16T06:25:41;12.40;99.90
71155;DHT22;59375;53.216;5.728;2022-10-16T06:28:07;12.40;99.90
71155;DHT22;59375;53.216;5.728;2022-10-16T06:30:32;12.40;99.90
71155;DHT22;59375;53.216;5.728;2022-10-16T06:32:58;12.40;99.90
71155;DHT22;59375;53.216;5.728;2022-10-16T06:35:23;12.40;99.90
71155;DHT22;59375;53.216;5.728;2022-10-16T06:37:49;12.50;99.90
71155;DHT22;59375;53.216;5.728;2022-10-16T06:40:15;12.50;99.90
71155;DHT22;59375;53.216;5.728;2022-10-16T06:42:41;12.50;99.90
71155;DHT22;59375;53.216;5.728;2022-10-16T06:45:07;12.50;99.90
71155;DHT22;59375;53.216;5.728;2022-10-16T06:47:32;12.50;99.90
71155;DHT22;59375;53.216;5.728;2022-10-16T06:49:58;12.50;99.90
71155;DHT22;59375;53.216;5.728;2022-10-16T06:52:24;12.60;99.90
71155;DHT22;59375;53.216;5.728;2022-10-16T06:54:49;12.60;99.90
71155;DHT22;59375;53.216;5.728;2022-10-16T06:57:15;12.60;99.90
71155;DHT22;59375;53.216;5.728;2022-10-16T06:59:41;12.60;99.90
71155;DHT22;59375;53.216;5.728;2022-10-16T07:02:08;12.70;99.90
71155;DHT22;59375;53.216;5.728;2022-10-16T07:04:33;12.70;99.90
71155;DHT22;59375;53.216;5.728;2022-10-16T07:07:00;12.70;99.90
71155;DHT22;59375;53.216;5.728;2022-10-16T07:09:26;12.70;99.90
71155;DHT22;59375;53.216;5.728;2022-10-16T07:11:51;12.70;99.90
71155;DHT22;59375;53.216;5.728;2022-10-16T07:14:19;12.70;99.90
71155;DHT22;59375;53.216;5.728;2022-10-16T07:16:45;12.60;99.90
71155;DHT22;59375;53.216;5.728;2022-10-16T07:19:11;12.60;99.90
71155;DHT22;59375;53.216;5.728;2022-10-16T07:21:40;12.60;99.90
71155;DHT22;59375;53.216;5.728;2022-10-16T07:24:11;12.70;99.90
71155;DHT22;59375;53.216;5.728;2022-10-16T07:26:38;12.70;99.90
71155;DHT22;59375;53.216;5.728;2022-10-16T07:29:06;12.70;99.90
71155;DHT22;59375;53.216;5.728;2022-10-16T07:31:32;12.80;99.90
71155;DHT22;59375;53.216;5.728;2022-10-16T07:33:59;12.80;99.90
71155;DHT22;59375;53.216;5.728;2022-10-16T07:36:25;12.90;99.90
71155;DHT22;59375;53.216;5.728;2022-10-16T07:38:50;12.90;99.90
71155;DHT22;59375;53.216;5.728;2022-10-16T07:41:18;13.00;99.90
71155;DHT22;59375;53.216;5.728;2022-10-16T07:43:49;13.00;99.90
71155;DHT22;59375;53.216;5.728;2022-10-16T07:46:15;13.00;99.90
71155;DHT22;59375;53.216;5.728;2022-10-16T07:48:42;13.10;99.90
71155;DHT22;59375;53.216;5.728;2022-10-16T07:51:11;13.10;99.90
71155;DHT22;59375;53.216;5.728;2022-10-16T07:53:37;13.10;99.90
71155;DHT22;59375;53.216;5.728;2022-10-16T07:56:05;13.10;99.90
71155;DHT22;59375;53.216;5.728;2022-10-16T07:58:31;13.20;99.90
71155;DHT22;59375;53.216;5.728;2022-10-16T08:00:58;13.20;99.90
71155;DHT22;59375;53.216;5.728;2022-10-16T08:03:24;13.20;99.90
71155;DHT22;59375;53.216;5.728;2022-10-16T08:05:50;13.20;99.90
71155;DHT22;59375;53.216;5.728;2022-10-16T08:08:17;13.20;99.90
71155;DHT22;59375;53.216;5.728;2022-10-16T08:10:42;13.20;99.90
71155;DHT22;59375;53.216;5.728;2022-10-16T08:13:08;13.20;99.90
71155;DHT22;59375;53.216;5.728;2022-10-16T08:15:34;13.30;99.90
71155;DHT22;59375;53.216;5.728;2022-10-16T08:18:02;13.30;99.90
71155;DHT22;59375;53.216;5.728;2022-10-16T08:20:29;13.40;99.90
71155;DHT22;59375;53.216;5.728;2022-10-16T08:22:55;13.40;99.90
71155;DHT22;59375;53.216;5.728;2022-10-16T08:25:22;13.40;99.90
71155;DHT22;59375;53.216;5.728;2022-10-16T08:27:48;13.40;99.90
71155;DHT22;59375;53.216;5.728;2022-10-16T08:30:15;13.50;99.90
71155;DHT22;59375;53.216;5.728;2022-10-16T08:32:41;13.50;99.90
71155;DHT22;59375;53.216;5.728;2022-10-16T08:35:08;13.50;99.90
71155;DHT22;59375;53.216;5.728;2022-10-16T08:37:34;13.50;99.90
71155;DHT22;59375;53.216;5.728;2022-10-16T08:40:00;13.50;99.90
71155;DHT22;59375;53.216;5.728;2022-10-16T08:45:27;13.70;99.90
71155;DHT22;59375;53.216;5.728;2022-10-16T08:50:40;13.90;99.90
71155;DHT22;59375;53.216;5.728;2022-10-16T08:53:06;14.00;99.90
71155;DHT22;59375;53.216;5.728;2022-10-16T08:55:37;14.10;99.90
71155;DHT22;59375;53.216;5.728;2022-10-16T08:58:13;14.10;99.90
71155;DHT22;59375;53.216;5.728;2022-10-16T09:00:40;14.20;99.90
71155;DHT22;59375;53.216;5.728;2022-10-16T09:05:54;14.40;99.90
71155;DHT22;59375;53.216;5.728;2022-10-16T09:08:32;14.40;99.90
71155;DHT22;59375;53.216;5.728;2022-10-16T09:11:12;14.60;99.90
71155;DHT22;59375;53.216;5.728;2022-10-16T09:14:28;14.70;99.90
71155;DHT22;59375;53.216;5.728;2022-10-16T09:16:39;14.70;99.90
71155;DHT22;59375;53.216;5.728;2022-10-16T09:21:55;14.90;99.90
71155;DHT22;59375;53.216;5.728;2022-10-16T09:24:24;14.90;99.90
71155;DHT22;59375;53.216;5.728;2022-10-16T09:26:50;15.00;99.90
71155;DHT22;59375;53.216;5.728;2022-10-16T09:29:18;15.00;99.90
71155;DHT22;59375;53.216;5.728;2022-10-16T09:31:48;15.00;99.90
71155;DHT22;59375;53.216;5.728;2022-10-16T09:34:30;15.00;99.90
71155;DHT22;59375;53.216;5.728;2022-10-16T09:36:58;15.10;99.90
71155;DHT22;59375;53.216;5.728;2022-10-16T09:39:24;15.10;99.90
71155;DHT22;59375;53.216;5.728;2022-10-16T09:41:50;15.20;99.90
71155;DHT22;59375;53.216;5.728;2022-10-16T09:44:26;15.30;99.90
71155;DHT22;59375;53.216;5.728;2022-10-16T09:47:17;15.40;99.90
71155;DHT22;59375;53.216;5.728;2022-10-16T09:50:03;15.50;99.90
71155;DHT22;59375;53.216;5.728;2022-10-16T09:52:32;15.60;99.90
71155;DHT22;59375;53.216;5.728;2022-10-16T09:55:00;15.60;99.90
71155;DHT22;59375;53.216;5.728;2022-10-16T09:57:26;15.60;99.90
71155;DHT22;59375;53.216;5.728;2022-10-16T09:59:56;15.60;99.90
71155;DHT22;59375;53.216;5.728;2022-10-16T10:02:36;15.60;99.90
71155;DHT22;59375;53.216;5.728;2022-10-16T10:05:04;15.60;99.90
71155;DHT22;59375;53.216;5.728;2022-10-16T10:07:33;15.60;99.90
71155;DHT22;59375;53.216;5.728;2022-10-16T10:10:00;15.60;99.90
71155;DHT22;59375;53.216;5.728;2022-10-16T10:12:31;15.70;99.90
71155;DHT22;59375;53.216;5.728;2022-10-16T10:15:07;15.70;99.90
71155;DHT22;59375;53.216;5.728;2022-10-16T10:17:48;15.70;99.90
71155;DHT22;59375;53.216;5.728;2022-10-16T10:20:29;15.70;99.90
71155;DHT22;59375;53.216;5.728;2022-10-16T10:22:55;15.80;99.90
71155;DHT22;59375;53.216;5.728;2022-10-16T10:33:31;16.20;99.90
71155;DHT22;59375;53.216;5.728;2022-10-16T10:41:19;16.50;99.90
71155;DHT22;59375;53.216;5.728;2022-10-16T10:49:49;17.10;99.90
71155;DHT22;59375;53.216;5.728;2022-10-16T10:58:15;18.40;99.90
71155;DHT22;59375;53.216;5.728;2022-10-16T11:01:09;19.00;99.90
71155;DHT22;59375;53.216;5.728;2022-10-16T11:06:58;19.40;99.90
71155;DHT22;59375;53.216;5.728;2022-10-16T11:09:35;19.70;99.90
71155;DHT22;59375;53.216;5.728;2022-10-16T11:17:15;21.60;99.90
71155;DHT22;59375;53.216;5.728;2022-10-16T11:19:46;21.80;99.90
71155;DHT22;59375;53.216;5.728;2022-10-16T11:22:31;21.60;99.90
71155;DHT22;59375;53.216;5.728;2022-10-16T11:27:44;21.80;99.90
71155;DHT22;59375;53.216;5.728;2022-10-16T11:30:20;22.20;99.90
71155;DHT22;59375;53.216;5.728;2022-10-16T11:35:55;23.40;99.10
71155;DHT22;59375;53.216;5.728;2022-10-16T11:38:36;24.00;98.70
71155;DHT22;59375;53.216;5.728;2022-10-16T11:43:42;24.60;96.20
71155;DHT22;59375;53.216;5.728;2022-10-16T11:46:12;25.00;95.70
71155;DHT22;59375;53.216;5.728;2022-10-16T11:51:39;25.50;95.60
71155;DHT22;59375;53.216;5.728;2022-10-16T11:54:23;25.80;93.50
71155;DHT22;59375;53.216;5.728;2022-10-16T11:56:53;26.00;92.70
71155;DHT22;59375;53.216;5.728;2022-10-16T11:59:26;26.20;92.60
71155;DHT22;59375;53.216;5.728;2022-10-16T12:01:54;26.30;92.40
71155;DHT22;59375;53.216;5.728;2022-10-16T12:09:32;26.50;90.40
71155;DHT22;59375;53.216;5.728;2022-10-16T12:11:59;26.60;89.70
71155;DHT22;59375;53.216;5.728;2022-10-16T12:14:39;26.70;89.10
71155;DHT22;59375;53.216;5.728;2022-10-16T12:17:25;26.80;86.70
71155;DHT22;59375;53.216;5.728;2022-10-16T12:22:49;26.90;87.00
71155;DHT22;59375;53.216;5.728;2022-10-16T12:25:42;27.00;86.10
71155;DHT22;59375;53.216;5.728;2022-10-16T12:30:41;27.20;83.60
71155;DHT22;59375;53.216;5.728;2022-10-16T12:33:28;27.30;82.80
71155;DHT22;59375;53.216;5.728;2022-10-16T12:35:54;27.30;83.20
71155;DHT22;59375;53.216;5.728;2022-10-16T12:38:28;27.30;80.00
71155;DHT22;59375;53.216;5.728;2022-10-16T12:41:07;27.40;80.20
71155;DHT22;59375;53.216;5.728;2022-10-16T12:48:34;27.70;77.10
71155;DHT22;59375;53.216;5.728;2022-10-16T12:54:02;27.20;76.80
71155;DHT22;59375;53.216;5.728;2022-10-16T12:57:18;27.00;76.10
71155;DHT22;59375;53.216;5.728;2022-10-16T13:02:28;26.60;76.80
71155;DHT22;59375;53.216;5.728;2022-10-16T13:07:43;26.40;77.90
71155;DHT22;59375;53.216;5.728;2022-10-16T13:10:44;26.30;77.40
71155;DHT22;59375;53.216;5.728;2022-10-16T13:18:44;25.90;79.80
71155;DHT22;59375;53.216;5.728;2022-10-16T13:27:01;25.00;82.00
71155;DHT22;59375;53.216;5.728;2022-10-16T13:29:32;24.70;83.90
71155;DHT22;59375;53.216;5.728;2022-10-16T13:31:59;24.30;85.50
71155;DHT22;59375;53.216;5.728;2022-10-16T13:34:26;24.10;86.70
71155;DHT22;59375;53.216;5.728;2022-10-16T13:36:53;23.80;87.50
71155;DHT22;59375;53.216;5.728;2022-10-16T13:39:27;23.60;88.50
71155;DHT22;59375;53.216;5.728;2022-10-16T13:42:11;23.30;90.00
71155;DHT22;59375;53.216;5.728;2022-10-16T13:44:49;23.20;90.20
71155;DHT22;59375;53.216;5.728;2022-10-16T13:47:21;23.10;90.40
71155;DHT22;59375;53.216;5.728;2022-10-16T13:49:48;23.10;91.20
71155;DHT22;59375;53.216;5.728;2022-10-16T13:52:23;23.30;91.60
71155;DHT22;59375;53.216;5.728;2022-10-16T13:54:49;23.30;91.60
71155;DHT22;59375;53.216;5.728;2022-10-16T13:57:15;23.40;91.50
71155;DHT22;59375;53.216;5.728;2022-10-16T13:59:41;23.50;91.50
71155;DHT22;59375;53.216;5.728;2022-10-16T14:02:29;23.30;91.30
71155;DHT22;59375;53.216;5.728;2022-10-16T14:04:57;23.30;91.40
71155;DHT22;59375;53.216;5.728;2022-10-16T14:07:25;23.40;91.10
71155;DHT22;59375;53.216;5.728;2022-10-16T14:09:53;23.60;91.20
71155;DHT22;59375;53.216;5.728;2022-10-16T14:12:19;23.80;91.20
71155;DHT22;59375;53.216;5.728;2022-10-16T14:14:49;23.70;91.00
71155;DHT22;59375;53.216;5.728;2022-10-16T14:19:46;22.80;91.80
71155;DHT22;59375;53.216;5.728;2022-10-16T14:22:38;22.20;92.70
71155;DHT22;59375;53.216;5.728;2022-10-16T14:30:55;20.60;96.70
71155;DHT22;59375;53.216;5.728;2022-10-16T14:33:24;20.20;97.80
71155;DHT22;59375;53.216;5.728;2022-10-16T14:38:29;19.70;98.90
71155;DHT22;59375;53.216;5.728;2022-10-16T14:40:57;19.50;99.10
71155;DHT22;59375;53.216;5.728;2022-10-16T14:43:41;19.30;99.50
71155;DHT22;59375;53.216;5.728;2022-10-16T14:46:18;19.00;99.80
71155;DHT22;59375;53.216;5.728;2022-10-16T14:48:52;18.70;99.90
71155;DHT22;59375;53.216;5.728;2022-10-16T14:51:20;18.60;99.90
71155;DHT22;59375;53.216;5.728;2022-10-16T14:53:46;18.40;99.90
71155;DHT22;59375;53.216;5.728;2022-10-16T14:56:22;18.30;99.90
71155;DHT22;59375;53.216;5.728;2022-10-16T14:58:49;18.10;99.90
71155;DHT22;59375;53.216;5.728;2022-10-16T15:01:15;18.00;99.90
71155;DHT22;59375;53.216;5.728;2022-10-16T15:03:41;17.90;99.90
71155;DHT22;59375;53.216;5.728;2022-10-16T15:06:11;17.80;99.90
71155;DHT22;59375;53.216;5.728;2022-10-16T15:08:37;17.60;99.90
71155;DHT22;59375;53.216;5.728;2022-10-16T15:11:03;17.50;99.90
71155;DHT22;59375;53.216;5.728;2022-10-16T15:13:28;17.40;99.90
71155;DHT22;59375;53.216;5.728;2022-10-16T15:15:54;17.40;99.90
71155;DHT22;59375;53.216;5.728;2022-10-16T15:18:19;17.30;99.90
71155;DHT22;59375;53.216;5.728;2022-10-16T15:20:48;17.20;99.90
71155;DHT22;59375;53.216;5.728;2022-10-16T15:23:19;17.10;99.90
71155;DHT22;59375;53.216;5.728;2022-10-16T15:25:50;17.00;99.90
71155;DHT22;59375;53.216;5.728;2022-10-16T15:28:17;16.90;99.90
71155;DHT22;59375;53.216;5.728;2022-10-16T15:30:44;16.80;99.90
71155;DHT22;59375;53.216;5.728;2022-10-16T15:33:14;16.80;99.90
71155;DHT22;59375;53.216;5.728;2022-10-16T15:35:41;16.70;99.90
71155;DHT22;59375;53.216;5.728;2022-10-16T15:38:09;16.60;99.90
71155;DHT22;59375;53.216;5.728;2022-10-16T15:40:35;16.60;99.90
71155;DHT22;59375;53.216;5.728;2022-10-16T15:43:01;16.50;99.90
71155;DHT22;59375;53.216;5.728;2022-10-16T15:45:27;16.50;99.90
71155;DHT22;59375;53.216;5.728;2022-10-16T15:47:52;16.40;99.90
71155;DHT22;59375;53.216;5.728;2022-10-16T15:50:18;16.40;99.90
71155;DHT22;59375;53.216;5.728;2022-10-16T15:52:43;16.30;99.90
71155;DHT22;59375;53.216;5.728;2022-10-16T15:55:11;16.20;99.90
71155;DHT22;59375;53.216;5.728;2022-10-16T15:57:37;16.10;99.90
71155;DHT22;59375;53.216;5.728;2022-10-16T16:00:09;16.00;99.90
71155;DHT22;59375;53.216;5.728;2022-10-16T16:02:36;15.90;99.90
71155;DHT22;59375;53.216;5.728;2022-10-16T16:05:01;15.80;99.90
71155;DHT22;59375;53.216;5.728;2022-10-16T16:07:27;15.70;99.90
71155;DHT22;59375;53.216;5.728;2022-10-16T16:09:53;15.70;99.90
71155;DHT22;59375;53.216;5.728;2022-10-16T16:12:19;15.60;99.90
71155;DHT22;59375;53.216;5.728;2022-10-16T16:14:45;15.60;99.90
71155;DHT22;59375;53.216;5.728;2022-10-16T16:17:13;15.50;99.90
71155;DHT22;59375;53.216;5.728;2022-10-16T16:19:39;15.50;99.90
71155;DHT22;59375;53.216;5.728;2022-10-16T16:22:04;15.50;99.90
71155;DHT22;59375;53.216;5.728;2022-10-16T16:24:30;15.40;99.90
71155;DHT22;59375;53.216;5.728;2022-10-16T16:26:55;15.40;99.90
71155;DHT22;59375;53.216;5.728;2022-10-16T16:29:21;15.40;99.90
71155;DHT22;59375;53.216;5.728;2022-10-16T16:31:47;15.30;99.90
71155;DHT22;59375;53.216;5.728;2022-10-16T16:34:13;15.20;99.90
71155;DHT22;59375;53.216;5.728;2022-10-16T16:36:39;15.20;99.90
71155;DHT22;59375;53.216;5.728;2022-10-16T16:39:06;15.20;99.90
71155;DHT22;59375;53.216;5.728;2022-10-16T16:41:32;15.10;99.90
71155;DHT22;59375;53.216;5.728;2022-10-16T16:44:03;15.10;99.90
71155;DHT22;59375;53.216;5.728;2022-10-16T16:46:29;15.10;99.90
71155;DHT22;59375;53.216;5.728;2022-10-16T16:48:58;15.00;99.90
71155;DHT22;59375;53.216;5.728;2022-10-16T16:51:23;15.00;99.90
71155;DHT22;59375;53.216;5.728;2022-10-16T16:53:50;14.90;99.90
71155;DHT22;59375;53.216;5.728;2022-10-16T16:56:17;14.80;99.90
71155;DHT22;59375;53.216;5.728;2022-10-16T16:58:47;14.80;99.90
71155;DHT22;59375;53.216;5.728;2022-10-16T17:01:13;14.80;99.90
71155;DHT22;59375;53.216;5.728;2022-10-16T17:03:42;14.70;99.90
71155;DHT22;59375;53.216;5.728;2022-10-16T17:06:12;14.70;99.90
71155;DHT22;59375;53.216;5.728;2022-10-16T17:08:38;14.60;99.90
71155;DHT22;59375;53.216;5.728;2022-10-16T17:11:05;14.50;99.90
71155;DHT22;59375;53.216;5.728;2022-10-16T17:13:32;14.40;99.90
71155;DHT22;59375;53.216;5.728;2022-10-16T17:16:01;14.30;99.90
71155;DHT22;59375;53.216;5.728;2022-10-16T17:18:26;14.20;99.90
71155;DHT22;59375;53.216;5.728;2022-10-16T17:20:52;14.20;99.90
71155;DHT22;59375;53.216;5.728;2022-10-16T17:23:19;14.20;99.90
71155;DHT22;59375;53.216;5.728;2022-10-16T17:25:45;14.20;99.90
71155;DHT22;59375;53.216;5.728;2022-10-16T17:28:12;14.20;99.90
71155;DHT22;59375;53.216;5.728;2022-10-16T17:30:42;14.20;99.90
71155;DHT22;59375;53.216;5.728;2022-10-16T17:33:09;14.10;99.90